sensor_id;sensor_type;location;lat;lon;timestamp;P1;durP1;ratioP1;P2;durP2;ratioP2
68923;SDS011;55961;52.156;20.942;2023-05-14T00:02:20;27.63;;;15.60;;
68923;SDS011;55961;52.156;20.942;2023-05-14T00:04:46;29.08;;;15.68;;
68923;SDS011;55961;52.156;20.942;2023-05-14T00:07:13;34.38;;;16.92;;
68923;SDS011;55961;52.156;20.942;2023-05-14T00:09:38;28.90;;;15.87;;
68923;SDS011;55961;52.156;20.942;2023-05-14T00:12:04;29.35;;;15.80;;
68923;SDS011;55961;52.156;20.942;2023-05-14T00:14:30;26.67;;;14.95;;
68923;SDS011;55961;52.156;20.942;2023-05-14T00:16:57;27.90;;;14.17;;
68923;SDS011;55961;52.156;20.942;2023-05-14T00:19:23;28.92;;;15.63;;
68923;SDS011;55961;52.156;20.942;2023-05-14T00:21:50;23.48;;;13.85;;
68923;SDS011;55961;52.156;20.942;2023-05-14T00:24:16;26.38;;;14.90;;
68923;SDS011;55961;52.156;20.942;2023-05-14T00:26:42;27.73;;;14.75;;
68923;SDS011;55961;52.156;20.942;2023-05-14T00:29:08;26.00;;;14.83;;
68923;SDS011;55961;52.156;20.942;2023-05-14T00:31:34;24.85;;;14.40;;
68923;SDS011;55961;52.156;20.942;2023-05-14T00:34:00;23.45;;;13.90;;
68923;SDS011;55961;52.156;20.942;2023-05-14T00:36:26;23.70;;;13.38;;
68923;SDS011;55961;52.156;20.942;2023-05-14T00:38:51;23.10;;;13.63;;
68923;SDS011;55961;52.156;20.942;2023-05-14T00:41:18;19.63;;;11.93;;
68923;SDS011;55961;52.156;20.942;2023-05-14T00:43:43;22.13;;;12.15;;
68923;SDS011;55961;52.156;20.942;2023-05-14T00:46:10;22.03;;;12.53;;
68923;SDS011;55961;52.156;20.942;2023-05-14T00:48:36;19.73;;;11.93;;
68923;SDS011;55961;52.156;20.942;2023-05-14T00:51:02;21.73;;;12.27;;
68923;SDS011;55961;52.156;20.942;2023-05-14T00:53:28;20.83;;;12.02;;
68923;SDS011;55961;52.156;20.942;2023-05-14T00:55:55;24.23;;;12.48;;
68923;SDS011;55961;52.156;20.942;2023-05-14T00:58:21;19.80;;;11.70;;
68923;SDS011;55961;52.156;20.942;2023-05-14T01:00:48;18.92;;;10.70;;
68923;SDS011;55961;52.156;20.942;2023-05-14T01:03:14;21.77;;;11.77;;
68923;SDS011;55961;52.156;20.942;2023-05-14T01:06:05;22.00;;;12.07;;
68923;SDS011;55961;52.156;20.942;2023-05-14T01:14:24;19.48;;;11.88;;
68923;SDS011;55961;52.156;20.942;2023-05-14T01:16:58;22.10;;;11.27;;
68923;SDS011;55961;52.156;20.942;2023-05-14T01:22:01;24.97;;;12.10;;
68923;SDS011;55961;52.156;20.942;2023-05-14T01:24:27;34.28;;;14.32;;
68923;SDS011;55961;52.156;20.942;2023-05-14T01:26:58;32.92;;;14.70;;
68923;SDS011;55961;52.156;20.942;2023-05-14T01:32:42;34.50;;;14.50;;
68923;SDS011;55961;52.156;20.942;2023-05-14T01:35:12;27.80;;;12.95;;
68923;SDS011;55961;52.156;20.942;2023-05-14T01:37:38;24.42;;;12.38;;
68923;SDS011;55961;52.156;20.942;2023-05-14T01:40:06;36.55;;;15.02;;
68923;SDS011;55961;52.156;20.942;2023-05-14T01:42:34;26.55;;;14.18;;
68923;SDS011;55961;52.156;20.942;2023-05-14T01:45:01;28.40;;;13.17;;
68923;SDS011;55961;52.156;20.942;2023-05-14T01:47:27;25.23;;;12.77;;
68923;SDS011;55961;52.156;20.942;2023-05-14T01:49:53;28.33;;;13.20;;
68923;SDS011;55961;52.156;20.942;2023-05-14T01:52:19;24.95;;;12.23;;
68923;SDS011;55961;52.156;20.942;2023-05-14T01:54:48;27.10;;;13.13;;
68923;SDS011;55961;52.156;20.942;2023-05-14T01:57:14;25.50;;;12.25;;
68923;SDS011;55961;52.156;20.942;2023-05-14T01:59:40;23.95;;;12.38;;
68923;SDS011;55961;52.156;20.942;2023-05-14T02:02:06;20.23;;;12.00;;
68923;SDS011;55961;52.156;20.942;2023-05-14T02:04:32;19.85;;;11.05;;
68923;SDS011;55961;52.156;20.942;2023-05-14T02:06:58;20.75;;;12.02;;
68923;SDS011;55961;52.156;20.942;2023-05-14T02:09:23;19.15;;;12.40;;
68923;SDS011;55961;52.156;20.942;2023-05-14T02:11:50;22.07;;;11.50;;
68923;SDS011;55961;52.156;20.942;2023-05-14T02:14:15;20.90;;;11.63;;
68923;SDS011;55961;52.156;20.942;2023-05-14T02:16:41;21.40;;;11.25;;
68923;SDS011;55961;52.156;20.942;2023-05-14T02:19:07;21.93;;;12.70;;
68923;SDS011;55961;52.156;20.942;2023-05-14T02:21:33;20.73;;;11.48;;
68923;SDS011;55961;52.156;20.942;2023-05-14T02:23:59;28.20;;;14.23;;
68923;SDS011;55961;52.156;20.942;2023-05-14T02:26:25;37.80;;;17.05;;
68923;SDS011;55961;52.156;20.942;2023-05-14T02:28:51;39.37;;;16.87;;
68923;SDS011;55961;52.156;20.942;2023-05-14T02:31:17;33.78;;;15.98;;
68923;SDS011;55961;52.156;20.942;2023-05-14T02:33:43;28.65;;;13.57;;
68923;SDS011;55961;52.156;20.942;2023-05-14T02:36:10;26.63;;;13.00;;
68923;SDS011;55961;52.156;20.942;2023-05-14T02:38:35;21.70;;;11.87;;
68923;SDS011;55961;52.156;20.942;2023-05-14T02:41:02;24.27;;;11.38;;
68923;SDS011;55961;52.156;20.942;2023-05-14T02:43:27;24.13;;;12.45;;
68923;SDS011;55961;52.156;20.942;2023-05-14T02:45:53;25.00;;;12.10;;
68923;SDS011;55961;52.156;20.942;2023-05-14T02:48:19;22.02;;;11.65;;
68923;SDS011;55961;52.156;20.942;2023-05-14T02:50:45;21.13;;;11.27;;
68923;SDS011;55961;52.156;20.942;2023-05-14T02:53:12;23.08;;;11.88;;
68923;SDS011;55961;52.156;20.942;2023-05-14T02:55:38;20.73;;;12.07;;
68923;SDS011;55961;52.156;20.942;2023-05-14T02:58:05;25.27;;;12.35;;
68923;SDS011;55961;52.156;20.942;2023-05-14T03:00:31;22.02;;;11.77;;
68923;SDS011;55961;52.156;20.942;2023-05-14T03:02:57;21.85;;;12.27;;
68923;SDS011;55961;52.156;20.942;2023-05-14T03:05:23;20.00;;;11.48;;
68923;SDS011;55961;52.156;20.942;2023-05-14T03:07:50;20.40;;;12.40;;
68923;SDS011;55961;52.156;20.942;2023-05-14T03:10:18;22.50;;;12.75;;
68923;SDS011;55961;52.156;20.942;2023-05-14T03:12:44;21.25;;;12.38;;
68923;SDS011;55961;52.156;20.942;2023-05-14T03:15:10;20.83;;;11.93;;
68923;SDS011;55961;52.156;20.942;2023-05-14T03:17:36;21.90;;;12.37;;
68923;SDS011;55961;52.156;20.942;2023-05-14T03:20:02;22.13;;;12.18;;
68923;SDS011;55961;52.156;20.942;2023-05-14T03:22:28;20.30;;;11.80;;
68923;SDS011;55961;52.156;20.942;2023-05-14T03:24:54;21.67;;;13.15;;
68923;SDS011;55961;52.156;20.942;2023-05-14T03:27:20;20.70;;;12.10;;
68923;SDS011;55961;52.156;20.942;2023-05-14T03:29:46;20.17;;;11.88;;
68923;SDS011;55961;52.156;20.942;2023-05-14T03:32:12;21.83;;;13.10;;
68923;SDS011;55961;52.156;20.942;2023-05-14T03:34:38;18.97;;;11.53;;
68923;SDS011;55961;52.156;20.942;2023-05-14T03:37:04;19.27;;;12.50;;
68923;SDS011;55961;52.156;20.942;2023-05-14T03:39:30;21.25;;;12.50;;
68923;SDS011;55961;52.156;20.942;2023-05-14T03:41:56;19.85;;;11.98;;
68923;SDS011;55961;52.156;20.942;2023-05-14T03:44:23;24.03;;;13.37;;
68923;SDS011;55961;52.156;20.942;2023-05-14T03:46:49;21.13;;;13.23;;
68923;SDS011;55961;52.156;20.942;2023-05-14T03:49:15;23.50;;;13.70;;
68923;SDS011;55961;52.156;20.942;2023-05-14T03:51:41;19.98;;;12.82;;
68923;SDS011;55961;52.156;20.942;2023-05-14T03:54:07;21.20;;;13.33;;
68923;SDS011;55961;52.156;20.942;2023-05-14T03:56:33;19.33;;;13.13;;
68923;SDS011;55961;52.156;20.942;2023-05-14T03:59:00;23.08;;;14.48;;
68923;SDS011;55961;52.156;20.942;2023-05-14T04:01:25;25.10;;;15.18;;
68923;SDS011;55961;52.156;20.942;2023-05-14T04:03:51;21.47;;;14.60;;
68923;SDS011;55961;52.156;20.942;2023-05-14T04:06:17;21.05;;;14.95;;
68923;SDS011;55961;52.156;20.942;2023-05-14T04:08:44;26.35;;;14.15;;
68923;SDS011;55961;52.156;20.942;2023-05-14T04:11:09;22.67;;;14.67;;
68923;SDS011;55961;52.156;20.942;2023-05-14T04:13:35;21.70;;;15.02;;
68923;SDS011;55961;52.156;20.942;2023-05-14T04:16:01;23.75;;;14.68;;
68923;SDS011;55961;52.156;20.942;2023-05-14T04:18:27;28.77;;;14.55;;
68923;SDS011;55961;52.156;20.942;2023-05-14T04:20:53;24.07;;;14.60;;
68923;SDS011;55961;52.156;20.942;2023-05-14T04:23:20;21.50;;;15.15;;
68923;SDS011;55961;52.156;20.942;2023-05-14T04:25:46;22.65;;;13.52;;
68923;SDS011;55961;52.156;20.942;2023-05-14T04:28:12;25.38;;;14.35;;
68923;SDS011;55961;52.156;20.942;2023-05-14T04:30:38;22.83;;;14.53;;
68923;SDS011;55961;52.156;20.942;2023-05-14T04:33:04;22.70;;;14.07;;
68923;SDS011;55961;52.156;20.942;2023-05-14T04:35:30;23.15;;;14.85;;
68923;SDS011;55961;52.156;20.942;2023-05-14T04:37:56;24.80;;;14.83;;
68923;SDS011;55961;52.156;20.942;2023-05-14T04:40:22;21.60;;;13.68;;
68923;SDS011;55961;52.156;20.942;2023-05-14T04:42:48;21.65;;;13.68;;
68923;SDS011;55961;52.156;20.942;2023-05-14T04:45:14;21.23;;;13.77;;
68923;SDS011;55961;52.156;20.942;2023-05-14T04:47:41;23.77;;;13.97;;
68923;SDS011;55961;52.156;20.942;2023-05-14T04:50:07;21.20;;;13.45;;
68923;SDS011;55961;52.156;20.942;2023-05-14T04:52:34;23.60;;;14.50;;
68923;SDS011;55961;52.156;20.942;2023-05-14T04:55:00;23.63;;;15.13;;
68923;SDS011;55961;52.156;20.942;2023-05-14T04:57:26;24.08;;;14.70;;
68923;SDS011;55961;52.156;20.942;2023-05-14T04:59:52;19.98;;;14.27;;
68923;SDS011;55961;52.156;20.942;2023-05-14T05:02:18;22.27;;;14.63;;
68923;SDS011;55961;52.156;20.942;2023-05-14T05:04:44;23.83;;;13.88;;
68923;SDS011;55961;52.156;20.942;2023-05-14T05:07:11;22.37;;;14.73;;
68923;SDS011;55961;52.156;20.942;2023-05-14T05:09:38;22.45;;;14.15;;
68923;SDS011;55961;52.156;20.942;2023-05-14T05:12:04;22.83;;;13.15;;
68923;SDS011;55961;52.156;20.942;2023-05-14T05:14:30;20.95;;;13.77;;
68923;SDS011;55961;52.156;20.942;2023-05-14T05:16:56;23.20;;;13.27;;
68923;SDS011;55961;52.156;20.942;2023-05-14T05:19:22;20.67;;;13.53;;
68923;SDS011;55961;52.156;20.942;2023-05-14T05:21:48;20.70;;;13.18;;
68923;SDS011;55961;52.156;20.942;2023-05-14T05:24:15;23.10;;;13.07;;
68923;SDS011;55961;52.156;20.942;2023-05-14T05:26:41;17.97;;;12.17;;
68923;SDS011;55961;52.156;20.942;2023-05-14T05:29:07;21.33;;;13.85;;
68923;SDS011;55961;52.156;20.942;2023-05-14T05:31:33;21.40;;;13.00;;
68923;SDS011;55961;52.156;20.942;2023-05-14T05:33:59;19.05;;;12.73;;
68923;SDS011;55961;52.156;20.942;2023-05-14T05:36:25;18.77;;;12.80;;
68923;SDS011;55961;52.156;20.942;2023-05-14T05:38:51;17.92;;;12.10;;
68923;SDS011;55961;52.156;20.942;2023-05-14T05:41:17;17.02;;;11.68;;
68923;SDS011;55961;52.156;20.942;2023-05-14T05:43:43;18.47;;;11.00;;
68923;SDS011;55961;52.156;20.942;2023-05-14T05:46:10;18.98;;;11.13;;
68923;SDS011;55961;52.156;20.942;2023-05-14T05:48:36;16.38;;;11.10;;
68923;SDS011;55961;52.156;20.942;2023-05-14T05:51:03;18.38;;;10.77;;
68923;SDS011;55961;52.156;20.942;2023-05-14T05:53:29;16.10;;;10.25;;
68923;SDS011;55961;52.156;20.942;2023-05-14T05:55:55;15.90;;;10.07;;
68923;SDS011;55961;52.156;20.942;2023-05-14T05:58:21;17.60;;;10.55;;
68923;SDS011;55961;52.156;20.942;2023-05-14T06:00:47;17.08;;;11.07;;
68923;SDS011;55961;52.156;20.942;2023-05-14T06:03:13;17.03;;;10.43;;
68923;SDS011;55961;52.156;20.942;2023-05-14T06:05:39;17.98;;;10.68;;
68923;SDS011;55961;52.156;20.942;2023-05-14T06:08:05;15.30;;;10.07;;
68923;SDS011;55961;52.156;20.942;2023-05-14T06:10:32;14.02;;;8.85;;
68923;SDS011;55961;52.156;20.942;2023-05-14T06:12:58;14.88;;;8.30;;
68923;SDS011;55961;52.156;20.942;2023-05-14T06:15:24;15.57;;;8.87;;
68923;SDS011;55961;52.156;20.942;2023-05-14T06:17:50;17.33;;;9.07;;
68923;SDS011;55961;52.156;20.942;2023-05-14T06:20:16;16.50;;;9.23;;
68923;SDS011;55961;52.156;20.942;2023-05-14T06:22:42;19.33;;;9.13;;
68923;SDS011;55961;52.156;20.942;2023-05-14T06:25:08;13.90;;;8.07;;
68923;SDS011;55961;52.156;20.942;2023-05-14T06:27:34;14.65;;;7.95;;
68923;SDS011;55961;52.156;20.942;2023-05-14T06:30:00;13.60;;;7.70;;
68923;SDS011;55961;52.156;20.942;2023-05-14T06:32:26;12.57;;;7.90;;
68923;SDS011;55961;52.156;20.942;2023-05-14T06:34:52;12.60;;;7.50;;
68923;SDS011;55961;52.156;20.942;2023-05-14T06:37:18;10.10;;;7.00;;
68923;SDS011;55961;52.156;20.942;2023-05-14T06:39:44;10.63;;;7.37;;
68923;SDS011;55961;52.156;20.942;2023-05-14T06:42:17;11.05;;;7.32;;
68923;SDS011;55961;52.156;20.942;2023-05-14T06:44:43;12.77;;;7.47;;
68923;SDS011;55961;52.156;20.942;2023-05-14T06:47:10;12.10;;;6.53;;
68923;SDS011;55961;52.156;20.942;2023-05-14T06:49:37;11.77;;;6.45;;
68923;SDS011;55961;52.156;20.942;2023-05-14T06:52:04;10.57;;;6.00;;
68923;SDS011;55961;52.156;20.942;2023-05-14T06:54:30;9.93;;;5.40;;
68923;SDS011;55961;52.156;20.942;2023-05-14T06:56:56;9.18;;;5.70;;
68923;SDS011;55961;52.156;20.942;2023-05-14T06:59:22;10.45;;;5.57;;
68923;SDS011;55961;52.156;20.942;2023-05-14T07:01:48;9.80;;;5.53;;
68923;SDS011;55961;52.156;20.942;2023-05-14T07:04:14;9.77;;;5.32;;
68923;SDS011;55961;52.156;20.942;2023-05-14T07:06:40;9.48;;;5.70;;
68923;SDS011;55961;52.156;20.942;2023-05-14T07:09:06;11.50;;;5.80;;
68923;SDS011;55961;52.156;20.942;2023-05-14T07:11:32;12.57;;;6.07;;
68923;SDS011;55961;52.156;20.942;2023-05-14T07:13:58;9.10;;;4.72;;
68923;SDS011;55961;52.156;20.942;2023-05-14T07:16:24;9.27;;;4.18;;
68923;SDS011;55961;52.156;20.942;2023-05-14T07:18:50;8.52;;;4.82;;
68923;SDS011;55961;52.156;20.942;2023-05-14T07:21:17;11.50;;;4.63;;
68923;SDS011;55961;52.156;20.942;2023-05-14T07:23:43;10.43;;;5.65;;
68923;SDS011;55961;52.156;20.942;2023-05-14T07:26:09;9.73;;;5.20;;
68923;SDS011;55961;52.156;20.942;2023-05-14T07:28:35;11.82;;;5.18;;
68923;SDS011;55961;52.156;20.942;2023-05-14T07:31:02;8.35;;;4.97;;
68923;SDS011;55961;52.156;20.942;2023-05-14T07:33:33;10.93;;;4.97;;
68923;SDS011;55961;52.156;20.942;2023-05-14T07:36:00;6.63;;;4.50;;
68923;SDS011;55961;52.156;20.942;2023-05-14T07:38:26;8.55;;;4.13;;
68923;SDS011;55961;52.156;20.942;2023-05-14T07:40:52;8.75;;;3.47;;
68923;SDS011;55961;52.156;20.942;2023-05-14T07:43:18;7.38;;;4.10;;
68923;SDS011;55961;52.156;20.942;2023-05-14T07:45:45;8.43;;;3.50;;
68923;SDS011;55961;52.156;20.942;2023-05-14T07:48:10;6.38;;;3.05;;
68923;SDS011;55961;52.156;20.942;2023-05-14T07:50:36;7.25;;;3.53;;
68923;SDS011;55961;52.156;20.942;2023-05-14T07:53:02;7.25;;;3.65;;
68923;SDS011;55961;52.156;20.942;2023-05-14T07:55:30;7.20;;;3.40;;
68923;SDS011;55961;52.156;20.942;2023-05-14T07:57:58;6.32;;;3.67;;
68923;SDS011;55961;52.156;20.942;2023-05-14T08:00:24;7.65;;;3.72;;
68923;SDS011;55961;52.156;20.942;2023-05-14T08:02:50;8.10;;;3.40;;
68923;SDS011;55961;52.156;20.942;2023-05-14T08:05:16;6.90;;;3.40;;
68923;SDS011;55961;52.156;20.942;2023-05-14T08:07:42;6.53;;;3.33;;
68923;SDS011;55961;52.156;20.942;2023-05-14T08:10:09;6.30;;;3.88;;
68923;SDS011;55961;52.156;20.942;2023-05-14T08:12:35;7.47;;;4.20;;
68923;SDS011;55961;52.156;20.942;2023-05-14T08:15:01;7.97;;;3.45;;
68923;SDS011;55961;52.156;20.942;2023-05-14T08:17:29;9.43;;;3.93;;
68923;SDS011;55961;52.156;20.942;2023-05-14T08:19:55;7.32;;;3.85;;
68923;SDS011;55961;52.156;20.942;2023-05-14T08:22:21;6.50;;;3.83;;
68923;SDS011;55961;52.156;20.942;2023-05-14T08:24:47;6.60;;;4.10;;
68923;SDS011;55961;52.156;20.942;2023-05-14T08:27:12;8.33;;;4.50;;
68923;SDS011;55961;52.156;20.942;2023-05-14T08:29:39;10.60;;;3.95;;
68923;SDS011;55961;52.156;20.942;2023-05-14T08:32:04;9.50;;;4.10;;
68923;SDS011;55961;52.156;20.942;2023-05-14T08:34:30;6.07;;;3.47;;
68923;SDS011;55961;52.156;20.942;2023-05-14T08:36:56;6.68;;;2.95;;
68923;SDS011;55961;52.156;20.942;2023-05-14T08:39:22;6.45;;;3.50;;
68923;SDS011;55961;52.156;20.942;2023-05-14T08:41:48;5.67;;;3.50;;
68923;SDS011;55961;52.156;20.942;2023-05-14T08:44:18;12.68;;;3.17;;
68923;SDS011;55961;52.156;20.942;2023-05-14T08:47:07;8.57;;;4.60;;
68923;SDS011;55961;52.156;20.942;2023-05-14T08:49:42;8.02;;;3.92;;
68923;SDS011;55961;52.156;20.942;2023-05-14T08:52:10;5.72;;;3.33;;
68923;SDS011;55961;52.156;20.942;2023-05-14T08:54:37;6.20;;;2.87;;
68923;SDS011;55961;52.156;20.942;2023-05-14T08:57:04;5.43;;;2.75;;
68923;SDS011;55961;52.156;20.942;2023-05-14T08:59:32;5.18;;;3.35;;
68923;SDS011;55961;52.156;20.942;2023-05-14T09:02:00;8.05;;;3.33;;
68923;SDS011;55961;52.156;20.942;2023-05-14T09:04:27;7.20;;;3.43;;
68923;SDS011;55961;52.156;20.942;2023-05-14T09:06:54;8.27;;;3.00;;
68923;SDS011;55961;52.156;20.942;2023-05-14T09:09:21;6.95;;;2.90;;
68923;SDS011;55961;52.156;20.942;2023-05-14T09:11:49;7.65;;;2.60;;
68923;SDS011;55961;52.156;20.942;2023-05-14T09:14:19;5.03;;;2.83;;
68923;SDS011;55961;52.156;20.942;2023-05-14T09:16:47;6.43;;;3.33;;
68923;SDS011;55961;52.156;20.942;2023-05-14T09:19:15;6.85;;;2.58;;
68923;SDS011;55961;52.156;20.942;2023-05-14T09:21:47;4.93;;;2.58;;
68923;SDS011;55961;52.156;20.942;2023-05-14T09:24:20;8.65;;;2.50;;
68923;SDS011;55961;52.156;20.942;2023-05-14T09:26:55;7.28;;;2.80;;
68923;SDS011;55961;52.156;20.942;2023-05-14T09:29:25;6.47;;;2.53;;
68923;SDS011;55961;52.156;20.942;2023-05-14T09:31:52;5.65;;;2.75;;
68923;SDS011;55961;52.156;20.942;2023-05-14T09:34:23;5.75;;;2.92;;
68923;SDS011;55961;52.156;20.942;2023-05-14T09:37:03;4.68;;;2.65;;
68923;SDS011;55961;52.156;20.942;2023-05-14T09:39:32;5.63;;;2.83;;
68923;SDS011;55961;52.156;20.942;2023-05-14T09:41:59;7.67;;;3.30;;
68923;SDS011;55961;52.156;20.942;2023-05-14T09:44:25;5.28;;;3.00;;
68923;SDS011;55961;52.156;20.942;2023-05-14T09:46:52;5.72;;;2.90;;
68923;SDS011;55961;52.156;20.942;2023-05-14T09:49:19;6.85;;;3.10;;
68923;SDS011;55961;52.156;20.942;2023-05-14T09:51:45;7.55;;;2.75;;
68923;SDS011;55961;52.156;20.942;2023-05-14T09:54:13;7.00;;;3.23;;
68923;SDS011;55961;52.156;20.942;2023-05-14T09:56:39;5.18;;;3.53;;
68923;SDS011;55961;52.156;20.942;2023-05-14T09:59:07;4.50;;;2.88;;
68923;SDS011;55961;52.156;20.942;2023-05-14T10:01:33;6.53;;;2.70;;
68923;SDS011;55961;52.156;20.942;2023-05-14T10:04:01;5.68;;;3.00;;
68923;SDS011;55961;52.156;20.942;2023-05-14T10:06:32;8.30;;;3.17;;
68923;SDS011;55961;52.156;20.942;2023-05-14T10:09:02;6.38;;;2.75;;
68923;SDS011;55961;52.156;20.942;2023-05-14T10:11:36;7.97;;;3.25;;
68923;SDS011;55961;52.156;20.942;2023-05-14T10:14:17;6.63;;;2.70;;
68923;SDS011;55961;52.156;20.942;2023-05-14T10:16:47;4.93;;;2.78;;
68923;SDS011;55961;52.156;20.942;2023-05-14T10:19:16;5.47;;;3.08;;
68923;SDS011;55961;52.156;20.942;2023-05-14T10:21:44;4.97;;;2.83;;
68923;SDS011;55961;52.156;20.942;2023-05-14T10:24:13;6.45;;;2.75;;
68923;SDS011;55961;52.156;20.942;2023-05-14T10:26:40;5.77;;;2.77;;
68923;SDS011;55961;52.156;20.942;2023-05-14T10:29:09;6.45;;;2.70;;
68923;SDS011;55961;52.156;20.942;2023-05-14T10:31:50;7.57;;;3.05;;
68923;SDS011;55961;52.156;20.942;2023-05-14T10:34:36;5.72;;;2.50;;
68923;SDS011;55961;52.156;20.942;2023-05-14T10:45:15;4.60;;;2.33;;
68923;SDS011;55961;52.156;20.942;2023-05-14T10:47:36;10.98;;;6.10;;
68923;SDS011;55961;52.156;20.942;2023-05-14T10:50:05;6.30;;;3.50;;
68923;SDS011;55961;52.156;20.942;2023-05-14T10:52:32;5.60;;;2.73;;
68923;SDS011;55961;52.156;20.942;2023-05-14T10:55:01;7.93;;;2.92;;
68923;SDS011;55961;52.156;20.942;2023-05-14T10:57:29;6.03;;;3.13;;
68923;SDS011;55961;52.156;20.942;2023-05-14T10:59:57;6.68;;;2.70;;
68923;SDS011;55961;52.156;20.942;2023-05-14T11:04:58;5.70;;;2.93;;
68923;SDS011;55961;52.156;20.942;2023-05-14T11:07:29;6.07;;;2.80;;
68923;SDS011;55961;52.156;20.942;2023-05-14T11:10:00;6.53;;;2.90;;
68923;SDS011;55961;52.156;20.942;2023-05-14T11:12:27;6.50;;;2.75;;
68923;SDS011;55961;52.156;20.942;2023-05-14T11:14:59;7.82;;;2.90;;
68923;SDS011;55961;52.156;20.942;2023-05-14T11:17:27;5.73;;;2.60;;
68923;SDS011;55961;52.156;20.942;2023-05-14T11:19:54;5.68;;;2.58;;
68923;SDS011;55961;52.156;20.942;2023-05-14T11:22:21;6.07;;;2.15;;
68923;SDS011;55961;52.156;20.942;2023-05-14T11:24:47;5.47;;;2.45;;
68923;SDS011;55961;52.156;20.942;2023-05-14T11:27:13;6.18;;;2.60;;
68923;SDS011;55961;52.156;20.942;2023-05-14T11:29:43;4.23;;;2.27;;
68923;SDS011;55961;52.156;20.942;2023-05-14T11:32:10;5.03;;;2.60;;
68923;SDS011;55961;52.156;20.942;2023-05-14T11:34:37;8.55;;;2.80;;
68923;SDS011;55961;52.156;20.942;2023-05-14T11:37:03;6.13;;;2.88;;
68923;SDS011;55961;52.156;20.942;2023-05-14T11:39:30;8.80;;;3.20;;
68923;SDS011;55961;52.156;20.942;2023-05-14T11:42:03;7.82;;;2.92;;
68923;SDS011;55961;52.156;20.942;2023-05-14T11:44:34;6.07;;;2.67;;
68923;SDS011;55961;52.156;20.942;2023-05-14T11:46:59;6.38;;;2.33;;
68923;SDS011;55961;52.156;20.942;2023-05-14T11:49:26;3.93;;;2.43;;
68923;SDS011;55961;52.156;20.942;2023-05-14T11:51:59;4.72;;;2.45;;
68923;SDS011;55961;52.156;20.942;2023-05-14T11:54:28;5.38;;;2.67;;
68923;SDS011;55961;52.156;20.942;2023-05-14T11:56:55;6.28;;;2.65;;
68923;SDS011;55961;52.156;20.942;2023-05-14T11:59:25;4.80;;;2.20;;
68923;SDS011;55961;52.156;20.942;2023-05-14T12:01:52;5.30;;;2.17;;
68923;SDS011;55961;52.156;20.942;2023-05-14T12:04:22;5.18;;;2.17;;
68923;SDS011;55961;52.156;20.942;2023-05-14T12:06:49;4.82;;;2.40;;
68923;SDS011;55961;52.156;20.942;2023-05-14T12:09:19;4.25;;;2.28;;
68923;SDS011;55961;52.156;20.942;2023-05-14T12:11:46;5.25;;;2.38;;
68923;SDS011;55961;52.156;20.942;2023-05-14T12:14:15;5.93;;;2.50;;
68923;SDS011;55961;52.156;20.942;2023-05-14T12:16:43;5.40;;;2.40;;
68923;SDS011;55961;52.156;20.942;2023-05-14T12:19:11;5.88;;;2.40;;
68923;SDS011;55961;52.156;20.942;2023-05-14T12:21:39;6.82;;;2.78;;
68923;SDS011;55961;52.156;20.942;2023-05-14T12:24:14;3.72;;;2.10;;
68923;SDS011;55961;52.156;20.942;2023-05-14T12:26:44;6.70;;;3.10;;
68923;SDS011;55961;52.156;20.942;2023-05-14T12:29:15;7.88;;;2.17;;
68923;SDS011;55961;52.156;20.942;2023-05-14T12:31:48;5.75;;;2.42;;
68923;SDS011;55961;52.156;20.942;2023-05-14T12:34:15;5.68;;;2.40;;
68923;SDS011;55961;52.156;20.942;2023-05-14T12:36:41;4.93;;;2.40;;
68923;SDS011;55961;52.156;20.942;2023-05-14T12:39:08;4.90;;;2.40;;
68923;SDS011;55961;52.156;20.942;2023-05-14T12:41:36;5.57;;;2.90;;
68923;SDS011;55961;52.156;20.942;2023-05-14T12:44:03;7.95;;;2.67;;
68923;SDS011;55961;52.156;20.942;2023-05-14T12:46:29;5.18;;;2.65;;
68923;SDS011;55961;52.156;20.942;2023-05-14T12:48:55;5.43;;;2.67;;
68923;SDS011;55961;52.156;20.942;2023-05-14T12:51:21;4.53;;;1.97;;
68923;SDS011;55961;52.156;20.942;2023-05-14T12:53:49;6.53;;;2.40;;
68923;SDS011;55961;52.156;20.942;2023-05-14T12:56:16;6.75;;;3.00;;
68923;SDS011;55961;52.156;20.942;2023-05-14T12:58:42;4.47;;;2.55;;
68923;SDS011;55961;52.156;20.942;2023-05-14T13:01:08;5.23;;;2.77;;
68923;SDS011;55961;52.156;20.942;2023-05-14T13:03:34;5.63;;;2.63;;
68923;SDS011;55961;52.156;20.942;2023-05-14T13:06:00;6.38;;;2.53;;
68923;SDS011;55961;52.156;20.942;2023-05-14T13:08:26;6.03;;;2.35;;
68923;SDS011;55961;52.156;20.942;2023-05-14T13:10:52;7.10;;;2.73;;
68923;SDS011;55961;52.156;20.942;2023-05-14T13:13:19;5.45;;;2.72;;
68923;SDS011;55961;52.156;20.942;2023-05-14T13:15:44;7.90;;;3.35;;
68923;SDS011;55961;52.156;20.942;2023-05-14T13:18:14;6.03;;;3.17;;
68923;SDS011;55961;52.156;20.942;2023-05-14T13:20:41;5.60;;;2.67;;
68923;SDS011;55961;52.156;20.942;2023-05-14T13:23:08;6.55;;;3.03;;
68923;SDS011;55961;52.156;20.942;2023-05-14T13:25:34;7.57;;;3.50;;
68923;SDS011;55961;52.156;20.942;2023-05-14T13:28:00;7.80;;;3.83;;
68923;SDS011;55961;52.156;20.942;2023-05-14T13:30:26;9.30;;;3.10;;
68923;SDS011;55961;52.156;20.942;2023-05-14T13:32:52;5.03;;;2.60;;
68923;SDS011;55961;52.156;20.942;2023-05-14T13:35:18;5.03;;;3.22;;
68923;SDS011;55961;52.156;20.942;2023-05-14T13:37:44;11.23;;;4.03;;
68923;SDS011;55961;52.156;20.942;2023-05-14T13:40:11;7.70;;;2.55;;
68923;SDS011;55961;52.156;20.942;2023-05-14T13:42:37;6.35;;;2.70;;
68923;SDS011;55961;52.156;20.942;2023-05-14T13:45:07;6.32;;;2.90;;
68923;SDS011;55961;52.156;20.942;2023-05-14T13:47:33;6.13;;;2.38;;
68923;SDS011;55961;52.156;20.942;2023-05-14T13:49:59;4.40;;;2.03;;
68923;SDS011;55961;52.156;20.942;2023-05-14T13:52:25;5.50;;;2.88;;
68923;SDS011;55961;52.156;20.942;2023-05-14T13:54:51;5.10;;;2.60;;
68923;SDS011;55961;52.156;20.942;2023-05-14T13:57:20;8.85;;;3.80;;
68923;SDS011;55961;52.156;20.942;2023-05-14T13:59:47;4.87;;;3.07;;
68923;SDS011;55961;52.156;20.942;2023-05-14T14:02:13;6.60;;;3.00;;
68923;SDS011;55961;52.156;20.942;2023-05-14T14:04:39;5.60;;;2.83;;
68923;SDS011;55961;52.156;20.942;2023-05-14T14:07:05;6.13;;;2.90;;
68923;SDS011;55961;52.156;20.942;2023-05-14T14:09:31;5.22;;;2.60;;
68923;SDS011;55961;52.156;20.942;2023-05-14T14:12:02;4.90;;;2.50;;
68923;SDS011;55961;52.156;20.942;2023-05-14T14:14:28;5.43;;;2.20;;
68923;SDS011;55961;52.156;20.942;2023-05-14T14:16:54;6.78;;;2.55;;
68923;SDS011;55961;52.156;20.942;2023-05-14T14:19:20;6.03;;;2.40;;
68923;SDS011;55961;52.156;20.942;2023-05-14T14:21:46;5.37;;;2.60;;
68923;SDS011;55961;52.156;20.942;2023-05-14T14:24:12;6.55;;;2.45;;
68923;SDS011;55961;52.156;20.942;2023-05-14T14:26:40;6.05;;;2.58;;
68923;SDS011;55961;52.156;20.942;2023-05-14T14:29:07;6.07;;;2.45;;
68923;SDS011;55961;52.156;20.942;2023-05-14T14:31:33;5.60;;;2.53;;
68923;SDS011;55961;52.156;20.942;2023-05-14T14:34:00;4.83;;;2.70;;
68923;SDS011;55961;52.156;20.942;2023-05-14T14:36:26;5.20;;;2.80;;
68923;SDS011;55961;52.156;20.942;2023-05-14T14:38:53;4.75;;;2.60;;
68923;SDS011;55961;52.156;20.942;2023-05-14T14:41:19;5.28;;;2.70;;
68923;SDS011;55961;52.156;20.942;2023-05-14T14:43:44;5.80;;;2.90;;
68923;SDS011;55961;52.156;20.942;2023-05-14T14:46:11;6.82;;;2.78;;